Terminal Aerodrome Forecast
Issued by NWS

Home | Current Version | Previous Version | Text Only | Print | Product List | Glossary On
Versions: 1 2 3 4 5 6 7 8 9 10 11 12 13 14 15 16 17 18 19 20
000
FTUS46 KEKA 230529
TAFCEC
TAF
KCEC 230529Z 2306/2406 35014G24KT 6SM HZ SKC
     FM230800 36010G16KT 5SM BR SKC
     FM231500 15008KT 1SM BR SKC
     FM232100 17007KT P6SM SKC
     FM240300 15003KT 4SM BR FEW005=

USA.gov is the U.S. government's official web portal to all federal, state and local government web resources and services.